Time;durP1;ratioP1;P1;durP2;ratioP2;P2;SDS_P1;SDS_P2;PMS_P1;PMS_P2;Temp;Humidity;BMP_temperature;BMP_pressure;BME280_temperature;BME280_humidity;BME280_pressure;Samples;Min_cycle;Max_cycle;Signal;HPM_P1;HPM_P2
2022/11/17 00:04:59;;;;;;;;;;;7.80;99.90;;;;;;12615980;28;19924;-39
2022/11/17 00:11:01;;;;;;;;;;;7.80;99.90;;;;;;12620332;28;19928;-38
2022/11/17 00:17:04;;;;;;;;;;;7.80;99.90;;;;;;12616305;28;19925;-39
2022/11/17 00:23:06;;;;;;;;;;;7.80;99.90;;;;;;12614344;28;19946;-39
2022/11/17 00:29:08;;;;;;;;;;;7.80;99.90;;;;;;12605824;28;19928;-39
2022/11/17 00:35:09;;;;;;;;;;;7.80;99.90;;;;;;12626723;28;19931;-39
2022/11/17 00:41:11;;;;;;;;;;;7.90;99.90;;;;;;12610348;28;20036;-39
2022/11/17 00:47:13;;;;;;;;;;;7.90;99.90;;;;;;12610917;28;20309;-38
2022/11/17 00:53:14;;;;;;;;;;;7.90;99.90;;;;;;12609164;28;19928;-38
2022/11/17 00:59:16;;;;;;;;;;;7.90;99.90;;;;;;12608088;28;20406;-39
2022/11/17 01:05:18;;;;;;;;;;;7.80;99.90;;;;;;12612225;28;19929;-38
2022/11/17 01:11:19;;;;;;;;;;;7.80;99.90;;;;;;12588937;28;20026;-39
2022/11/17 01:17:21;;;;;;;;;;;7.80;99.90;;;;;;12609791;28;20974;-39
2022/11/17 01:23:23;;;;;;;;;;;7.80;99.90;;;;;;12602153;28;19924;-39
2022/11/17 01:29:24;;;;;;;;;;;7.70;99.90;;;;;;12608428;28;20435;-38
2022/11/17 01:35:26;;;;;;;;;;;7.70;99.90;;;;;;12617328;28;20292;-39
2022/11/17 01:41:28;;;;;;;;;;;7.60;99.90;;;;;;12603655;28;20295;-39
2022/11/17 01:47:38;;;;;;;;;;;7.60;99.90;;;;;;12604706;28;19973;-38
2022/11/17 01:53:41;;;;;;;;;;;7.60;99.90;;;;;;12605606;28;19924;-39
2022/11/17 01:59:50;;;;;;;;;;;7.50;99.90;;;;;;12607134;28;19927;-39
2022/11/17 02:05:57;;;;;;;;;;;7.50;99.90;;;;;;12598276;28;19932;-39
2022/11/17 02:11:59;;;;;;;;;;;7.50;99.90;;;;;;12613964;28;19924;-40
2022/11/17 02:18:01;;;;;;;;;;;7.50;99.90;;;;;;12628190;28;20035;-39
2022/11/17 02:24:17;;;;;;;;;;;7.50;99.90;;;;;;12638958;28;19928;-39
2022/11/17 02:30:20;;;;;;;;;;;7.50;99.90;;;;;;12622670;28;19942;-39
2022/11/17 02:36:28;;;;;;;;;;;7.50;99.90;;;;;;12627342;28;20307;-38
2022/11/17 02:48:56;;;;;;;;;;;7.50;99.90;;;;;;12600275;28;19924;-39
2022/11/17 02:54:59;;;;;;;;;;;7.50;99.90;;;;;;12582783;28;19924;-39
2022/11/17 03:01:09;;;;;;;;;;;7.50;99.90;;;;;;12624116;28;19924;-38
2022/11/17 03:07:20;;;;;;;;;;;7.40;99.90;;;;;;12597031;28;19924;-39
2022/11/17 03:13:28;;;;;;;;;;;7.40;99.90;;;;;;12630702;28;19928;-38
2022/11/17 03:19:29;;;;;;;;;;;7.40;99.90;;;;;;12632315;28;19931;-38
2022/11/17 03:25:33;;;;;;;;;;;7.40;99.90;;;;;;12616212;28;19928;-38
2022/11/17 03:31:36;;;;;;;;;;;7.30;99.90;;;;;;12625848;28;19924;-38
2022/11/17 03:37:43;;;;;;;;;;;7.40;99.90;;;;;;12615950;28;19980;-38
2022/11/17 03:43:48;;;;;;;;;;;7.30;99.90;;;;;;12620773;28;19924;-38
2022/11/17 03:50:00;;;;;;;;;;;7.40;99.90;;;;;;12615075;28;20291;-39
2022/11/17 03:56:02;;;;;;;;;;;7.40;99.90;;;;;;12603716;28;20357;-39
2022/11/17 04:02:04;;;;;;;;;;;7.40;99.90;;;;;;12612029;28;20299;-39
2022/11/17 04:08:06;;;;;;;;;;;7.40;99.90;;;;;;12617570;28;19998;-38
2022/11/17 04:20:34;;;;;;;;;;;7.40;99.90;;;;;;12614817;28;19930;-38
2022/11/17 04:32:56;;;;;;;;;;;7.30;99.90;;;;;;12613516;28;20282;-38
2022/11/17 04:38:58;;;;;;;;;;;7.30;99.90;;;;;;12612979;28;20359;-39
2022/11/17 04:45:00;;;;;;;;;;;7.20;99.90;;;;;;12601178;28;19924;-38
2022/11/17 04:51:01;;;;;;;;;;;7.10;99.90;;;;;;12592452;28;19969;-38
2022/11/17 04:57:03;;;;;;;;;;;7.00;99.90;;;;;;12600316;28;19928;-39
2022/11/17 05:03:05;;;;;;;;;;;6.90;99.90;;;;;;12612601;28;19931;-39
2022/11/17 05:09:08;;;;;;;;;;;6.90;99.90;;;;;;12611445;28;19928;-39
2022/11/17 05:15:09;;;;;;;;;;;6.80;99.90;;;;;;12621734;28;20399;-38
2022/11/17 05:21:11;;;;;;;;;;;6.80;99.90;;;;;;12619998;28;19935;-38
2022/11/17 05:27:13;;;;;;;;;;;6.80;99.90;;;;;;12608157;28;20077;-39
2022/11/17 05:33:14;;;;;;;;;;;6.80;99.90;;;;;;12608020;28;19931;-39
2022/11/17 05:39:16;;;;;;;;;;;6.70;99.90;;;;;;12610434;28;20269;-39
2022/11/17 05:45:18;;;;;;;;;;;6.70;99.90;;;;;;12609210;28;19928;-39
2022/11/17 05:51:21;;;;;;;;;;;6.60;99.90;;;;;;12593435;28;19924;-38
2022/11/17 05:57:25;;;;;;;;;;;6.60;99.90;;;;;;12596227;28;20299;-39
2022/11/17 06:03:36;;;;;;;;;;;6.60;99.90;;;;;;12565711;28;19928;-39
2022/11/17 06:09:40;;;;;;;;;;;6.60;99.90;;;;;;12605010;28;19924;-39
2022/11/17 06:15:42;;;;;;;;;;;6.50;99.90;;;;;;12601074;28;19932;-39
2022/11/17 06:21:43;;;;;;;;;;;6.50;99.90;;;;;;12609069;28;19985;-39
2022/11/17 06:28:07;;;;;;;;;;;6.50;99.90;;;;;;12611019;28;20399;-38
2022/11/17 06:34:08;;;;;;;;;;;6.50;99.90;;;;;;12607966;28;19932;-38
2022/11/17 06:40:12;;;;;;;;;;;6.50;99.90;;;;;;12607022;28;19928;-38
2022/11/17 06:46:13;;;;;;;;;;;6.40;99.90;;;;;;12574418;28;20449;-38
2022/11/17 06:52:15;;;;;;;;;;;6.30;99.90;;;;;;12583990;28;20066;-38
2022/11/17 06:58:17;;;;;;;;;;;6.30;99.90;;;;;;12609674;28;19935;-38
2022/11/17 07:04:19;;;;;;;;;;;6.30;99.90;;;;;;12622874;28;19931;-38
2022/11/17 07:10:21;;;;;;;;;;;6.40;99.90;;;;;;12611403;28;20363;-38
2022/11/17 07:16:22;;;;;;;;;;;6.30;99.90;;;;;;12619472;28;19928;-39
2022/11/17 07:22:24;;;;;;;;;;;6.30;99.90;;;;;;12616094;28;19931;-38
2022/11/17 07:28:26;;;;;;;;;;;6.40;99.90;;;;;;12610373;28;19935;-38
2022/11/17 07:34:28;;;;;;;;;;;6.40;99.90;;;;;;12621235;28;20341;-38
2022/11/17 07:40:30;;;;;;;;;;;6.30;99.90;;;;;;12617641;28;19963;-39
2022/11/17 07:46:32;;;;;;;;;;;6.30;99.90;;;;;;12595097;28;20018;-38
2022/11/17 07:52:34;;;;;;;;;;;6.30;99.90;;;;;;12603873;28;20269;-39
2022/11/17 07:58:42;;;;;;;;;;;6.40;99.90;;;;;;12612535;28;19924;-39
2022/11/17 08:04:43;;;;;;;;;;;6.40;99.90;;;;;;12605398;28;19973;-38
2022/11/17 08:10:45;;;;;;;;;;;6.50;99.90;;;;;;12630516;28;20027;-39
2022/11/17 08:16:47;;;;;;;;;;;6.60;99.90;;;;;;12613350;28;20007;-38
2022/11/17 08:22:49;;;;;;;;;;;6.60;99.90;;;;;;12613587;28;19928;-38
2022/11/17 08:28:51;;;;;;;;;;;6.60;99.90;;;;;;12615773;28;19928;-39
2022/11/17 08:34:59;;;;;;;;;;;6.80;99.90;;;;;;12595308;28;19935;-39
2022/11/17 08:41:02;;;;;;;;;;;6.90;99.90;;;;;;12596373;28;20419;-39
2022/11/17 08:47:04;;;;;;;;;;;6.90;99.90;;;;;;12610358;28;20421;-38
2022/11/17 08:53:10;;;;;;;;;;;6.80;99.90;;;;;;12607884;28;19931;-38
2022/11/17 08:59:12;;;;;;;;;;;6.80;99.90;;;;;;12607239;28;19974;-39
2022/11/17 09:05:14;;;;;;;;;;;6.70;99.90;;;;;;12605903;28;19924;-39
2022/11/17 09:11:16;;;;;;;;;;;6.90;99.90;;;;;;12628089;28;20538;-38
2022/11/17 09:17:18;;;;;;;;;;;6.90;99.90;;;;;;12620481;28;20030;-38
2022/11/17 09:23:19;;;;;;;;;;;6.90;99.90;;;;;;12613777;28;19923;-37
2022/11/17 09:29:22;;;;;;;;;;;6.90;99.90;;;;;;12606923;28;19924;-36
2022/11/17 09:35:23;;;;;;;;;;;6.80;99.90;;;;;;12610531;28;19924;-37
2022/11/17 09:41:27;;;;;;;;;;;6.90;99.90;;;;;;12598214;28;20451;-37
2022/11/17 09:47:34;;;;;;;;;;;7.00;99.90;;;;;;12605105;28;19931;-37
2022/11/17 09:53:43;;;;;;;;;;;6.90;99.90;;;;;;12574939;28;19932;-37
2022/11/17 09:59:47;;;;;;;;;;;6.90;99.90;;;;;;12609884;28;19977;-37
2022/11/17 10:05:49;;;;;;;;;;;6.90;99.90;;;;;;12584752;28;19936;-37
2022/11/17 10:11:51;;;;;;;;;;;6.90;99.90;;;;;;12615018;28;20323;-37
2022/11/17 10:17:53;;;;;;;;;;;6.90;99.90;;;;;;12610191;28;19978;-37
2022/11/17 10:23:56;;;;;;;;;;;6.80;99.90;;;;;;12606186;28;20406;-37
2022/11/17 10:29:59;;;;;;;;;;;6.90;99.90;;;;;;12614986;28;19973;-36
2022/11/17 10:36:01;;;;;;;;;;;6.90;99.90;;;;;;12621421;28;19947;-37
2022/11/17 10:42:23;;;;;;;;;;;6.80;99.90;;;;;;12616517;28;19955;-37
2022/11/17 10:48:32;;;;;;;;;;;6.90;99.90;;;;;;12612119;28;19925;-37
2022/11/17 10:54:34;;;;;;;;;;;6.80;99.90;;;;;;12610289;28;20295;-37
2022/11/17 11:00:36;;;;;;;;;;;6.90;99.90;;;;;;12612353;28;19931;-37
2022/11/17 11:06:37;;;;;;;;;;;6.80;99.90;;;;;;12605871;28;19932;-37
2022/11/17 11:12:51;;;;;;;;;;;6.80;99.90;;;;;;12623299;28;19931;-37
2022/11/17 11:18:53;;;;;;;;;;;7.00;99.90;;;;;;12614145;28;20330;-37
2022/11/17 11:25:10;;;;;;;;;;;7.00;99.90;;;;;;12620139;28;19932;-37
2022/11/17 11:31:18;;;;;;;;;;;7.00;99.90;;;;;;12620651;28;19989;-37
2022/11/17 11:37:22;;;;;;;;;;;7.00;99.90;;;;;;12601529;28;20304;-37
2022/11/17 11:43:27;;;;;;;;;;;7.10;99.90;;;;;;12603597;28;19925;-37
2022/11/17 11:49:40;;;;;;;;;;;7.20;99.90;;;;;;12608429;28;19931;-37
2022/11/17 11:55:44;;;;;;;;;;;7.20;99.90;;;;;;12591130;28;19924;-36
2022/11/17 12:01:54;;;;;;;;;;;7.30;99.90;;;;;;12609549;28;19924;-37
2022/11/17 12:08:10;;;;;;;;;;;7.30;99.90;;;;;;12623676;28;20511;-37
2022/11/17 12:14:15;;;;;;;;;;;7.30;99.90;;;;;;12623697;28;19924;-37
2022/11/17 12:20:32;;;;;;;;;;;7.30;99.90;;;;;;12617274;28;19924;-37
2022/11/17 12:26:33;;;;;;;;;;;7.40;99.90;;;;;;12609492;28;19928;-37
2022/11/17 12:32:47;;;;;;;;;;;7.50;99.90;;;;;;12617498;28;19931;-37
2022/11/17 12:38:49;;;;;;;;;;;7.50;99.90;;;;;;12609322;28;20269;-37
2022/11/17 12:45:10;;;;;;;;;;;7.50;99.90;;;;;;12598963;28;19924;-37
2022/11/17 12:51:21;;;;;;;;;;;7.40;99.90;;;;;;12597671;28;19973;-37
2022/11/17 12:57:29;;;;;;;;;;;7.50;99.90;;;;;;12611548;28;19936;-37
2022/11/17 13:03:44;;;;;;;;;;;7.50;99.90;;;;;;12611073;28;19924;-37
2022/11/17 13:09:53;;;;;;;;;;;7.60;99.90;;;;;;12607816;28;19929;-37
2022/11/17 13:15:57;;;;;;;;;;;7.70;99.90;;;;;;12589647;28;20451;-37
2022/11/17 13:22:01;;;;;;;;;;;7.80;99.90;;;;;;12609443;28;19977;-37
2022/11/17 13:28:02;;;;;;;;;;;7.80;99.90;;;;;;12597551;28;20261;-37
2022/11/17 13:34:12;;;;;;;;;;;7.80;99.90;;;;;;12609743;28;20430;-37
2022/11/17 13:40:20;;;;;;;;;;;7.80;99.90;;;;;;12602005;28;19928;-37
2022/11/17 13:46:22;;;;;;;;;;;7.70;99.90;;;;;;12593078;28;19925;-37
2022/11/17 13:52:24;;;;;;;;;;;7.70;99.90;;;;;;12601924;28;20405;-38
2022/11/17 13:58:36;;;;;;;;;;;7.70;99.90;;;;;;12583945;28;19971;-37
2022/11/17 14:04:38;;;;;;;;;;;7.60;99.90;;;;;;12602421;28;19979;-37
2022/11/17 14:10:40;;;;;;;;;;;7.70;99.90;;;;;;12610650;28;19935;-38
2022/11/17 14:16:43;;;;;;;;;;;7.70;99.90;;;;;;12619337;28;19964;-37
2022/11/17 14:23:00;;;;;;;;;;;7.70;99.90;;;;;;12607899;28;19928;-37
2022/11/17 14:29:02;;;;;;;;;;;7.80;99.90;;;;;;12594709;28;19936;-38
2022/11/17 14:35:04;;;;;;;;;;;7.80;99.90;;;;;;12599895;28;19932;-38
2022/11/17 14:41:06;;;;;;;;;;;7.80;99.90;;;;;;12587562;28;19978;-37
2022/11/17 14:47:08;;;;;;;;;;;7.80;99.90;;;;;;12593415;28;19931;-37
2022/11/17 14:53:09;;;;;;;;;;;7.80;99.90;;;;;;12596014;28;19924;-38
2022/11/17 14:59:11;;;;;;;;;;;7.70;99.90;;;;;;12608034;28;20040;-37
2022/11/17 15:05:14;;;;;;;;;;;7.70;99.90;;;;;;12602728;28;20065;-37
2022/11/17 15:11:16;;;;;;;;;;;7.70;99.90;;;;;;12610090;28;19935;-37
2022/11/17 15:17:18;;;;;;;;;;;7.70;99.90;;;;;;12606018;28;20349;-38
2022/11/17 15:23:20;;;;;;;;;;;7.70;99.90;;;;;;12616358;28;19931;-38
2022/11/17 15:29:22;;;;;;;;;;;7.60;99.90;;;;;;12613021;28;20368;-37
2022/11/17 15:35:23;;;;;;;;;;;7.60;99.90;;;;;;12601227;28;19928;-38
2022/11/17 15:41:25;;;;;;;;;;;7.60;99.90;;;;;;12612344;28;19924;-37
2022/11/17 15:47:34;;;;;;;;;;;7.50;99.90;;;;;;12598656;28;20007;-37
2022/11/17 15:53:37;;;;;;;;;;;7.50;99.90;;;;;;12589019;28;19924;-37
2022/11/17 15:59:39;;;;;;;;;;;7.40;99.90;;;;;;12601790;28;20304;-37
2022/11/17 16:05:40;;;;;;;;;;;7.30;99.90;;;;;;12618292;28;20013;-37
2022/11/17 16:11:42;;;;;;;;;;;7.30;99.90;;;;;;12612963;28;20013;-37
2022/11/17 16:17:44;;;;;;;;;;;7.30;99.90;;;;;;12613380;28;20041;-37
2022/11/17 16:23:46;;;;;;;;;;;7.30;99.90;;;;;;12620245;28;19932;-42
2022/11/17 16:29:48;;;;;;;;;;;7.30;99.90;;;;;;12615238;28;19957;-37
2022/11/17 16:35:50;;;;;;;;;;;7.30;99.90;;;;;;12615055;28;20296;-37
2022/11/17 16:41:53;;;;;;;;;;;7.30;99.90;;;;;;12600254;28;19924;-37
2022/11/17 16:47:55;;;;;;;;;;;7.40;99.90;;;;;;12602263;28;19932;-38
2022/11/17 16:53:57;;;;;;;;;;;7.50;99.90;;;;;;12587745;28;19924;-37
2022/11/17 16:59:59;;;;;;;;;;;7.50;99.90;;;;;;12608483;28;19928;-38
2022/11/17 17:06:04;;;;;;;;;;;7.50;99.90;;;;;;12604877;28;20338;-37
2022/11/17 17:12:08;;;;;;;;;;;7.40;99.90;;;;;;12609711;28;20248;-37
2022/11/17 17:18:10;;;;;;;;;;;7.30;99.90;;;;;;12608106;28;19931;-37
2022/11/17 17:24:12;;;;;;;;;;;7.30;99.90;;;;;;12620716;28;19924;-38
2022/11/17 17:30:13;;;;;;;;;;;7.30;99.90;;;;;;12602034;28;19924;-37
2022/11/17 17:36:16;;;;;;;;;;;7.20;99.90;;;;;;12615062;28;20327;-37
2022/11/17 17:42:19;;;;;;;;;;;7.20;99.90;;;;;;12601677;28;19973;-37
2022/11/17 17:48:21;;;;;;;;;;;7.20;99.90;;;;;;12609131;28;19929;-37
2022/11/17 17:54:24;;;;;;;;;;;7.20;99.90;;;;;;12598956;28;20055;-37
2022/11/17 18:00:25;;;;;;;;;;;7.20;99.90;;;;;;12604547;28;19928;-38
2022/11/17 18:06:27;;;;;;;;;;;7.20;99.90;;;;;;12619560;28;19932;-37
2022/11/17 18:12:29;;;;;;;;;;;7.10;99.90;;;;;;12617578;28;19931;-38
2022/11/17 18:18:31;;;;;;;;;;;7.00;99.90;;;;;;12619211;28;19956;-37
2022/11/17 18:24:33;;;;;;;;;;;7.10;99.90;;;;;;12621264;28;19931;-37
2022/11/17 18:30:34;;;;;;;;;;;7.00;99.90;;;;;;12603584;28;19928;-37
2022/11/17 18:36:36;;;;;;;;;;;7.10;99.90;;;;;;12605869;28;20398;-38
2022/11/17 18:42:38;;;;;;;;;;;7.10;99.90;;;;;;12605642;28;19924;-37
2022/11/17 18:48:41;;;;;;;;;;;7.10;99.90;;;;;;12594607;28;19932;-38
2022/11/17 18:54:42;;;;;;;;;;;7.10;99.90;;;;;;12614168;28;19928;-37
2022/11/17 19:00:44;;;;;;;;;;;7.00;99.90;;;;;;12612531;28;19934;-37
2022/11/17 19:06:46;;;;;;;;;;;7.00;99.90;;;;;;12610022;28;20364;-40
2022/11/17 19:12:47;;;;;;;;;;;7.00;99.90;;;;;;12618501;28;19924;-39
2022/11/17 19:18:50;;;;;;;;;;;7.00;99.90;;;;;;12618868;28;20292;-39
2022/11/17 19:24:52;;;;;;;;;;;6.90;99.90;;;;;;12617514;28;19924;-39
2022/11/17 19:30:58;;;;;;;;;;;6.90;99.90;;;;;;12614858;28;19931;-39
2022/11/17 19:37:00;;;;;;;;;;;6.90;99.90;;;;;;12627879;28;19924;-39
2022/11/17 19:43:01;;;;;;;;;;;6.90;99.90;;;;;;12614918;28;19931;-39
2022/11/17 19:49:04;;;;;;;;;;;7.00;99.90;;;;;;12606991;28;19928;-39
2022/11/17 19:55:06;;;;;;;;;;;6.90;99.90;;;;;;12604971;28;19995;-39
2022/11/17 20:01:08;;;;;;;;;;;6.90;99.90;;;;;;12613096;28;19946;-39
2022/11/17 20:07:10;;;;;;;;;;;6.80;99.90;;;;;;12619443;28;19928;-39
2022/11/17 20:13:12;;;;;;;;;;;6.70;99.90;;;;;;12612408;28;20011;-40
2022/11/17 20:19:14;;;;;;;;;;;6.80;99.90;;;;;;12616520;28;19959;-40
2022/11/17 20:25:16;;;;;;;;;;;6.70;99.90;;;;;;12616903;28;20023;-39
2022/11/17 20:31:22;;;;;;;;;;;6.80;99.90;;;;;;12607626;28;19981;-39
2022/11/17 20:37:24;;;;;;;;;;;6.80;99.90;;;;;;12615702;28;19956;-39
2022/11/17 20:43:26;;;;;;;;;;;6.80;99.90;;;;;;12605802;28;19932;-39
2022/11/17 20:49:28;;;;;;;;;;;6.80;99.90;;;;;;12607743;28;20361;-39
2022/11/17 20:55:30;;;;;;;;;;;6.70;99.90;;;;;;12607620;28;20368;-39
2022/11/17 21:01:31;;;;;;;;;;;6.70;99.90;;;;;;12597462;28;19924;-39
2022/11/17 21:07:33;;;;;;;;;;;6.70;99.90;;;;;;12603472;28;20403;-39
2022/11/17 21:13:36;;;;;;;;;;;6.80;99.90;;;;;;12607324;28;20654;-39
2022/11/17 21:19:37;;;;;;;;;;;6.80;99.90;;;;;;12614116;28;20304;-39
2022/11/17 21:25:39;;;;;;;;;;;6.90;99.90;;;;;;12601800;28;19928;-39
2022/11/17 21:31:41;;;;;;;;;;;7.00;99.90;;;;;;12613863;28;20012;-39
2022/11/17 21:37:43;;;;;;;;;;;7.00;99.90;;;;;;12566613;28;19925;-39
2022/11/17 21:43:46;;;;;;;;;;;7.00;99.90;;;;;;12546829;28;20291;-39
2022/11/17 21:49:47;;;;;;;;;;;7.00;99.90;;;;;;12558345;28;19951;-39
2022/11/17 21:55:49;;;;;;;;;;;7.00;99.90;;;;;;12528211;28;19929;-39
2022/11/17 22:01:51;;;;;;;;;;;7.00;99.90;;;;;;12557887;28;19924;-39
2022/11/17 22:07:53;;;;;;;;;;;7.00;99.90;;;;;;12557675;28;19931;-39
2022/11/17 22:13:54;;;;;;;;;;;7.00;99.90;;;;;;12558728;28;19928;-40
2022/11/17 22:19:56;;;;;;;;;;;7.00;99.90;;;;;;12539755;28;19928;-39
2022/11/17 22:25:59;;;;;;;;;;;7.00;99.90;;;;;;12573089;28;19979;-39
2022/11/17 22:32:01;;;;;;;;;;;7.00;99.90;;;;;;12565633;28;19939;-39
2022/11/17 22:38:02;;;;;;;;;;;7.00;99.90;;;;;;12619532;28;19928;-39
2022/11/17 22:44:05;;;;;;;;;;;7.00;99.90;;;;;;12609775;28;20330;-39
2022/11/17 22:50:07;;;;;;;;;;;7.10;99.90;;;;;;12605478;28;19932;-39
2022/11/17 22:56:08;;;;;;;;;;;7.00;99.90;;;;;;12566211;28;20412;-39
2022/11/17 23:02:10;;;;;;;;;;;6.90;99.90;;;;;;12607241;28;20337;-39
2022/11/17 23:08:12;;;;;;;;;;;6.90;99.90;;;;;;12616977;28;19924;-39
2022/11/17 23:14:14;;;;;;;;;;;6.80;99.90;;;;;;12605259;28;20408;-39
2022/11/17 23:20:16;;;;;;;;;;;6.80;99.90;;;;;;12603207;28;19924;-40
2022/11/17 23:26:18;;;;;;;;;;;6.70;99.90;;;;;;12617077;28;19932;-39
2022/11/17 23:32:20;;;;;;;;;;;6.60;99.90;;;;;;12617857;28;19928;-39
2022/11/17 23:38:22;;;;;;;;;;;6.60;99.90;;;;;;12601599;28;19988;-39
2022/11/17 23:44:23;;;;;;;;;;;6.50;99.90;;;;;;12603279;28;20269;-39
2022/11/17 23:50:25;;;;;;;;;;;6.40;99.90;;;;;;12601814;28;20709;-39
2022/11/17 23:56:30;;;;;;;;;;;6.50;99.90;;;;;;12595518;28;19939;-39
